Etusivu
METAR-TAF:

METAR-TAF

Lentoasemat :

Bujumbura, Burundi

Bujumburan kansainvälinen lentoasema

Leveyspiiri: 03-19S, Pituuspiiri: 029-19E, korkeus merenpinnasta: 782 m

METAR: puuttuu

Aika: 12:07 (10:07 UTC)

Sääennuste

Tämä raportti tehtiin 7 tuntia ja 7 minuuttia sitten, kello 03.00 UTC
Ennuste voimassa 27. päivästä klo 06 UTC - 28. päivään klo 12 UTC
Tuuli 2 kn pohjoisesta puuskistuen 20 kn:hen
Näkyvyys 10 km tai enemmän
Muutamia pilviä 3000 ft:n korkeudessa
Muutamia pilviä 3500 ft:n korkeudessa
Muutamia pilviä 3000 ft:n korkeudessa
Tulossa
28. päivästä klo 07 UTC - 28. päivään klo 09 UTC
Tuuli 10 kn etelästä
Näkyvyys 10 km tai enemmän
Muutamia pilviä 3500 ft:n korkeudessa

TAF: HBBA 270300Z 2706/2812 36003KT 9999 FEW030 BECMG2708/2710 18010G20KT 9999 FEW035 BECMG2714/2716 00000KT CAVOK BECMG2802/2804 36002KT 9999 FEW030 BECMG 2807/2809 18010KT 9999 FEW035

Säähavainnot ja -ennusteet yli 4000 lentoasemalta (METAR- ja TAF-raportit).

Käytössä olevat sääasemat on merkitty karttaan keltaisilla ja punaisilla pisteillä.

Aseta hiiri pisteen päälle nähdäksesi sääaseman nimen.

Klikkaa sitten nähdäksesi säähavainnot ja -ennusteet.

Kartan vaihtaminen: klikkaa mustalla rastilla varustettuja vihreitä pisteitä, niin voit zoomata sisään; viivalla varustettua vihreää pistettä, niin voit zoomata ulos tai vihreitä nuolia, niin pääset viereisille kartoille.


METAR-TAF: